createdAt,value
2022-08-23T00:02:47.229Z,12.90
2022-08-23T00:05:18.428Z,13.20
2022-08-23T00:07:56.969Z,13.00
2022-08-23T00:10:43.158Z,12.80
2022-08-23T00:13:12.846Z,12.90
2022-08-23T00:15:48.689Z,13.00
2022-08-23T00:18:37.017Z,12.90
2022-08-23T00:21:06.434Z,12.80
2022-08-23T00:23:41.499Z,12.70
2022-08-23T00:26:08.851Z,12.60
2022-08-23T00:28:35.876Z,12.90
2022-08-23T00:31:02.927Z,13.10
2022-08-23T00:33:29.753Z,13.10
2022-08-23T00:35:56.525Z,13.10
2022-08-23T00:38:33.109Z,13.10
2022-08-23T00:41:03.351Z,12.90
2022-08-23T00:43:53.998Z,12.70
2022-08-23T00:46:39.422Z,12.60
2022-08-23T00:49:09.498Z,12.50
2022-08-23T00:51:54.992Z,12.70
2022-08-23T00:54:24.914Z,12.80
2022-08-23T00:56:52.525Z,12.80
2022-08-23T00:59:19.499Z,12.90
2022-08-23T01:01:46.882Z,12.60
2022-08-23T01:04:14.468Z,12.80
2022-08-23T01:06:54.353Z,12.80
2022-08-23T01:09:24.763Z,12.70
2022-08-23T01:12:08.246Z,12.60
2022-08-23T01:14:47.418Z,12.60
2022-08-23T01:17:24.338Z,12.70
2022-08-23T01:19:55.067Z,12.60
2022-08-23T01:22:46.453Z,12.70
2022-08-23T01:25:18.289Z,12.40
2022-08-23T01:27:45.740Z,12.80
2022-08-23T01:30:21.106Z,13.00
2022-08-23T01:32:54.721Z,13.10
2022-08-23T01:39:34.091Z,12.30
2022-08-23T01:43:29.037Z,12.10
2022-08-23T01:46:24.395Z,12.00
2022-08-23T01:56:38.193Z,11.90
2022-08-23T02:00:07.473Z,11.70
2022-08-23T02:06:59.234Z,11.50
2022-08-23T02:09:51.153Z,11.60
2022-08-23T02:12:31.450Z,11.50
2022-08-23T02:15:49.003Z,11.50
2022-08-23T02:18:30.788Z,11.50
2022-08-23T02:21:38.254Z,11.70
2022-08-23T02:24:50.315Z,11.70
2022-08-23T02:28:28.493Z,11.60
2022-08-23T02:30:43.943Z,11.50
2022-08-23T02:37:38.261Z,11.30
2022-08-23T02:41:10.745Z,11.20
2022-08-23T02:47:32.147Z,11.10
2022-08-23T02:50:48.498Z,11.10
2022-08-23T02:53:40.786Z,11.00
2022-08-23T02:59:41.766Z,11.10
2022-08-23T03:02:26.043Z,11.00
2022-08-23T03:08:26.370Z,11.00
2022-08-23T03:11:42.022Z,11.20
2022-08-23T03:14:43.958Z,11.10
2022-08-23T03:17:52.310Z,11.00
2022-08-23T03:20:31.764Z,10.80
2022-08-23T03:23:09.820Z,10.80
2022-08-23T03:25:47.241Z,10.70
2022-08-23T03:28:50.585Z,10.70
2022-08-23T03:31:24.499Z,10.60
2022-08-23T03:34:35.507Z,10.60
2022-08-23T03:37:07.425Z,10.50
2022-08-23T04:08:46.519Z,10.60
2022-08-23T04:12:17.545Z,10.50
2022-08-23T04:15:20.991Z,10.70
2022-08-23T04:18:41.552Z,10.80
2022-08-23T04:25:10.125Z,10.80
2022-08-23T04:34:45.673Z,10.70
2022-08-23T05:08:56.517Z,10.80
2022-08-23T05:42:28.728Z,12.10
2022-08-23T05:44:55.657Z,12.30
2022-08-23T05:47:27.056Z,12.40
2022-08-23T05:50:14.422Z,12.60
2022-08-23T05:52:45.834Z,12.70
2022-08-23T05:55:14.588Z,12.80
2022-08-23T05:57:41.462Z,13.00
2022-08-23T06:00:13.068Z,13.10
2022-08-23T06:02:46.025Z,13.20
2022-08-23T06:05:13.886Z,13.20
2022-08-23T06:07:42.086Z,13.50
2022-08-23T06:10:09.762Z,13.50
2022-08-23T06:12:56.112Z,13.60
2022-08-23T06:15:23.323Z,13.70
2022-08-23T06:17:50.268Z,13.80
2022-08-23T06:20:17.693Z,13.80
2022-08-23T06:23:00.339Z,13.90
2022-08-23T06:25:28.964Z,14.10
2022-08-23T06:28:06.557Z,14.20
2022-08-23T06:30:36.086Z,14.30
2022-08-23T06:33:20.797Z,14.30
2022-08-23T06:35:49.139Z,14.40
2022-08-23T06:38:42.486Z,14.60
2022-08-23T06:41:17.846Z,14.70
2022-08-23T06:44:03.960Z,14.80
2022-08-23T06:46:58.774Z,14.90
2022-08-23T06:49:27.909Z,15.10
2022-08-23T06:52:02.842Z,15.30
2022-08-23T06:54:53.338Z,15.50
2022-08-23T06:57:32.743Z,15.90
2022-08-23T07:00:26.675Z,16.20
2022-08-23T07:03:07.370Z,16.50
2022-08-23T07:06:01.730Z,16.70
2022-08-23T07:08:31.570Z,17.30
2022-08-23T07:11:01.712Z,19.00
2022-08-23T07:13:30.463Z,24.80
2022-08-23T07:16:03.174Z,27.50
2022-08-23T07:18:33.222Z,28.60
2022-08-23T07:21:03.488Z,29.40
2022-08-23T07:23:33.565Z,29.60
2022-08-23T07:26:07.381Z,30.30
2022-08-23T07:28:35.208Z,31.00
2022-08-23T07:31:18.673Z,31.40
2022-08-23T07:33:47.752Z,30.70
2022-08-23T07:36:22.108Z,31.00
2022-08-23T07:39:02.555Z,31.60
2022-08-23T07:41:38.625Z,32.00
2022-08-23T07:44:13.125Z,32.00
2022-08-23T07:46:47.253Z,32.30
2022-08-23T07:49:32.723Z,33.20
2022-08-23T08:47:50.718Z,34.60
2022-08-23T08:50:24.139Z,35.50
2022-08-23T08:53:03.872Z,34.90
2022-08-23T08:55:57.434Z,35.50
2022-08-23T08:58:40.775Z,35.80
2022-08-23T09:01:10.435Z,35.70
2022-08-23T09:03:43.125Z,36.10
2022-08-23T09:06:26.205Z,34.70
2022-08-23T09:09:16.428Z,32.50
2022-08-23T09:33:50.557Z,33.80
2022-08-23T09:39:31.349Z,33.00
2022-08-23T09:42:03.888Z,31.90
2022-08-23T09:44:39.239Z,29.80
2022-08-23T09:47:15.668Z,28.80
2022-08-23T09:49:52.007Z,29.00
2022-08-23T09:52:26.326Z,28.40
2022-08-23T09:55:25.979Z,28.30
2022-08-23T09:57:53.270Z,28.10
2022-08-23T10:00:39.073Z,28.20
2022-08-23T10:03:40.651Z,28.00
2022-08-23T10:06:31.415Z,27.90
2022-08-23T10:09:05.361Z,29.00
2022-08-23T10:11:46.218Z,31.00
2022-08-23T10:14:24.347Z,32.40
2022-08-23T10:17:04.761Z,32.10
2022-08-23T10:19:40.376Z,32.60
2022-08-23T10:22:12.373Z,33.40
2022-08-23T10:25:01.665Z,33.40
2022-08-23T10:27:55.042Z,32.40
2022-08-23T10:30:27.865Z,32.90
2022-08-23T10:33:26.084Z,33.20
2022-08-23T10:36:00.121Z,32.10
2022-08-23T10:38:40.094Z,29.60
2022-08-23T10:41:33.869Z,28.20
2022-08-23T10:44:35.241Z,28.30
2022-08-23T10:47:33.600Z,28.40
2022-08-23T10:50:20.361Z,28.10
2022-08-23T10:53:05.136Z,28.00
2022-08-23T10:56:00.009Z,27.10
2022-08-23T10:58:36.669Z,26.30
2022-08-23T11:01:06.201Z,26.70
2022-08-23T11:03:50.447Z,26.70
2022-08-23T11:06:36.301Z,26.90
2022-08-23T11:09:19.997Z,26.70
2022-08-23T11:12:11.426Z,26.90
2022-08-23T11:14:46.524Z,27.30
2022-08-23T11:17:51.616Z,27.70
2022-08-23T11:20:49.822Z,27.30
2022-08-23T11:23:40.663Z,27.20
2022-08-23T11:26:28.049Z,27.00
2022-08-23T11:29:06.959Z,27.30
2022-08-23T11:31:49.787Z,27.00
2022-08-23T11:34:29.373Z,27.00
2022-08-23T11:37:19.739Z,27.10
2022-08-23T11:39:57.792Z,27.50
2022-08-23T11:42:29.712Z,27.40
2022-08-23T11:44:56.613Z,27.40
2022-08-23T11:48:09.029Z,27.50
2022-08-23T11:51:01.766Z,26.90
2022-08-23T11:53:54.023Z,26.50
2022-08-23T11:56:55.464Z,26.50
2022-08-23T11:59:42.014Z,26.40
2022-08-23T12:02:41.263Z,26.10
2022-08-23T12:05:24.292Z,26.40
2022-08-23T12:07:51.440Z,26.60
2022-08-23T12:10:44.302Z,27.00
2022-08-23T12:13:22.720Z,27.20
2022-08-23T12:16:14.739Z,26.80
2022-08-23T12:18:47.808Z,26.40
2022-08-23T12:21:41.405Z,25.20
2022-08-23T12:24:30.171Z,25.50
2022-08-23T12:27:00.189Z,25.50
2022-08-23T12:29:57.642Z,25.10
2022-08-23T12:32:49.070Z,25.30
2022-08-23T12:35:50.519Z,26.20
2022-08-23T12:38:38.877Z,25.80
2022-08-23T12:41:20.041Z,26.40
2022-08-23T12:44:06.434Z,26.50
2022-08-23T12:46:46.784Z,26.20
2022-08-23T12:49:28.386Z,25.90
2022-08-23T12:51:58.198Z,26.40
2022-08-23T12:54:44.711Z,25.50
2022-08-23T12:57:15.847Z,25.50
2022-08-23T12:59:47.923Z,25.40
2022-08-23T13:02:25.261Z,25.60
2022-08-23T13:04:54.926Z,25.90
2022-08-23T13:07:23.507Z,26.00
2022-08-23T13:09:53.472Z,25.30
2022-08-23T13:12:23.234Z,25.30
2022-08-23T13:14:52.947Z,25.50
2022-08-23T13:17:26.218Z,25.50
2022-08-23T13:20:11.819Z,25.80
2022-08-23T13:22:55.336Z,25.70
2022-08-23T13:25:42.460Z,25.30
2022-08-23T13:28:28.758Z,25.50
2022-08-23T13:31:04.335Z,25.00
2022-08-23T13:33:31.652Z,25.60
2022-08-23T13:36:15.801Z,25.80
2022-08-23T13:38:44.081Z,25.70
2022-08-23T13:41:25.667Z,25.60
2022-08-23T13:43:55.275Z,25.50
2022-08-23T13:46:28.938Z,25.50
2022-08-23T13:49:05.959Z,25.50
2022-08-23T13:51:38.626Z,25.30
2022-08-23T13:54:11.828Z,25.30
2022-08-23T13:56:49.122Z,25.20
2022-08-23T13:59:31.796Z,25.10
2022-08-23T14:02:12.193Z,25.00
2022-08-23T14:04:40.354Z,24.80
2022-08-23T14:07:07.832Z,24.90
2022-08-23T14:09:35.611Z,25.00
2022-08-23T14:12:12.887Z,25.00
2022-08-23T14:14:44.033Z,25.10
2022-08-23T14:17:14.202Z,24.80
2022-08-23T14:22:40.433Z,24.70
2022-08-23T14:30:35.981Z,24.70
2022-08-23T14:33:36.131Z,24.60
2022-08-23T14:39:46.903Z,24.30
2022-08-23T14:42:28.642Z,24.10
2022-08-23T14:46:30.307Z,24.20
2022-08-23T14:49:28.078Z,24.10
2022-08-23T14:56:29.385Z,24.10
2022-08-23T14:59:03.057Z,24.20
2022-08-23T15:04:34.604Z,24.30
2022-08-23T15:07:18.259Z,24.20
2022-08-23T15:10:02.604Z,24.30
2022-08-23T15:15:28.145Z,24.10
2022-08-23T15:18:00.597Z,24.00
2022-08-23T15:20:32.605Z,24.10
2022-08-23T15:23:02.496Z,24.00
2022-08-23T15:25:34.900Z,24.00
2022-08-23T15:28:08.521Z,24.00
2022-08-23T15:30:44.021Z,23.90
2022-08-23T15:33:10.933Z,23.80
2022-08-23T15:35:54.425Z,23.80
2022-08-23T15:38:24.085Z,23.70
2022-08-23T15:40:52.939Z,23.90
2022-08-23T15:43:21.583Z,23.90
2022-08-23T15:45:49.450Z,23.90
2022-08-23T15:48:30.831Z,23.90
2022-08-23T15:51:01.723Z,24.00
2022-08-23T15:53:28.553Z,23.90
2022-08-23T15:55:55.467Z,23.90
2022-08-23T15:58:25.744Z,23.70
2022-08-23T16:00:53.875Z,23.70
2022-08-23T16:03:22.218Z,23.70
2022-08-23T16:05:52.413Z,23.50
2022-08-23T16:08:26.155Z,23.60
2022-08-23T16:10:54.266Z,23.70
2022-08-23T16:13:22.288Z,23.70
2022-08-23T16:15:49.216Z,23.60
2022-08-23T16:18:16.694Z,23.60
2022-08-23T16:20:44.345Z,23.70
2022-08-23T16:23:11.620Z,23.50
2022-08-23T16:25:39.846Z,23.50
2022-08-23T16:28:08.792Z,23.50
2022-08-23T16:30:39.910Z,23.50
2022-08-23T16:33:06.879Z,23.60
2022-08-23T16:35:33.681Z,23.40
2022-08-23T16:38:00.428Z,23.30
2022-08-23T16:40:27.335Z,23.30
2022-08-23T16:42:56.460Z,23.30
2022-08-23T16:45:26.295Z,23.20
2022-08-23T16:47:55.860Z,23.20
2022-08-23T16:50:22.883Z,23.30
2022-08-23T16:52:49.625Z,23.20
2022-08-23T16:55:17.010Z,23.20
2022-08-23T16:57:43.774Z,23.00
2022-08-23T17:00:14.642Z,23.00
2022-08-23T17:02:42.466Z,23.00
2022-08-23T17:05:13.671Z,22.90
2022-08-23T17:07:42.325Z,22.90
2022-08-23T17:10:11.130Z,22.80
2022-08-23T17:12:42.144Z,22.80
2022-08-23T17:15:20.449Z,22.70
2022-08-23T17:17:48.132Z,22.70
2022-08-23T17:20:15.788Z,22.70
2022-08-23T17:22:43.029Z,22.50
2022-08-23T17:27:53.794Z,22.50
2022-08-23T17:30:44.180Z,22.50
2022-08-23T17:37:38.694Z,22.30
2022-08-23T17:41:49.872Z,22.10
2022-08-23T17:49:23.814Z,21.90
2022-08-23T17:57:17.618Z,21.20
2022-08-23T17:59:44.526Z,21.00
2022-08-23T18:02:11.257Z,20.80
2022-08-23T18:04:41.585Z,20.70
2022-08-23T18:07:08.707Z,20.60
2022-08-23T18:09:37.913Z,20.40
2022-08-23T18:12:08.358Z,20.30
2022-08-23T18:14:35.849Z,20.20
2022-08-23T18:17:02.659Z,20.00
2022-08-23T18:19:29.428Z,19.90
2022-08-23T18:21:58.593Z,19.70
2022-08-23T18:24:28.684Z,19.60
2022-08-23T18:27:13.919Z,19.50
2022-08-23T18:29:46.775Z,19.40
2022-08-23T18:32:23.705Z,19.20
2022-08-23T18:35:55.601Z,19.20
2022-08-23T18:39:43.690Z,19.10
2022-08-23T18:45:50.959Z,18.70
2022-08-23T18:52:12.570Z,18.50
2022-08-23T18:55:47.380Z,18.40
2022-08-23T18:58:39.309Z,18.30
2022-08-23T19:01:48.378Z,18.10
2022-08-23T19:05:13.664Z,18.00
2022-08-23T19:07:20.618Z,18.00
2022-08-23T19:09:51.264Z,17.80
2022-08-23T19:12:31.529Z,17.70
2022-08-23T19:15:02.958Z,17.60
2022-08-23T19:20:50.186Z,17.50
2022-08-23T19:23:24.172Z,17.40
2022-08-23T19:26:17.336Z,17.30
2022-08-23T19:29:16.635Z,17.30
2022-08-23T19:31:48.786Z,17.10
2022-08-23T19:34:21.174Z,17.10
2022-08-23T19:37:06.347Z,17.00
2022-08-23T19:39:45.467Z,16.90
2022-08-23T19:42:16.594Z,16.80
2022-08-23T19:44:46.196Z,16.80
2022-08-23T19:47:19.687Z,16.70
2022-08-23T19:50:09.792Z,16.70
2022-08-23T19:52:47.135Z,16.70
2022-08-23T19:55:18.342Z,16.60
2022-08-23T19:57:47.869Z,16.60
2022-08-23T20:00:43.116Z,16.60
2022-08-23T20:06:44.592Z,16.40
2022-08-23T20:09:24.856Z,16.30
2022-08-23T20:11:58.403Z,16.20
2022-08-23T20:14:30.132Z,16.20
2022-08-23T20:16:57.285Z,16.00
2022-08-23T20:19:24.172Z,15.90
2022-08-23T20:21:51.371Z,16.00
2022-08-23T20:24:28.860Z,16.00
2022-08-23T20:27:06.030Z,16.00
2022-08-23T20:29:34.237Z,15.90
2022-08-23T20:40:01.380Z,16.10
2022-08-23T20:44:11.520Z,16.00
2022-08-23T20:50:34.576Z,15.80
2022-08-23T20:53:09.608Z,15.90
2022-08-23T20:55:53.061Z,15.90
2022-08-23T21:44:50.513Z,15.60
2022-08-23T22:22:03.633Z,15.30
2022-08-23T22:32:30.363Z,15.90
2022-08-23T23:07:37.226Z,14.10
2022-08-23T23:10:13.254Z,14.10
2022-08-23T23:12:42.477Z,14.40
2022-08-23T23:15:09.784Z,14.40
2022-08-23T23:17:36.545Z,14.20
